createdAt,value
2023-05-06T00:02:41.377Z,10.10
2023-05-06T00:04:43.942Z,10.20
2023-05-06T00:06:46.586Z,10.10
2023-05-06T00:08:49.066Z,10.00
2023-05-06T00:10:51.570Z,10.00
2023-05-06T00:12:54.118Z,10.00
2023-05-06T00:14:56.669Z,10.00
2023-05-06T00:16:59.295Z,10.00
2023-05-06T00:19:01.766Z,10.00
2023-05-06T00:21:04.417Z,10.00
2023-05-06T00:23:06.894Z,10.10
2023-05-06T00:25:10.319Z,10.10
2023-05-06T00:27:13.052Z,10.10
2023-05-06T00:29:15.653Z,10.10
2023-05-06T00:31:18.396Z,10.10
2023-05-06T00:33:20.973Z,10.10
2023-05-06T00:35:24.154Z,10.20
2023-05-06T00:37:26.768Z,10.20
2023-05-06T00:39:29.492Z,10.20
2023-05-06T00:41:32.437Z,10.10
2023-05-06T00:43:35.043Z,10.00
2023-05-06T00:45:38.119Z,10.00
2023-05-06T00:47:40.874Z,10.00
2023-05-06T00:49:43.785Z,10.00
2023-05-06T00:51:46.381Z,10.00
2023-05-06T00:53:49.074Z,10.00
2023-05-06T00:55:51.863Z,10.00
2023-05-06T00:57:54.714Z,10.10
2023-05-06T00:59:57.327Z,10.10
2023-05-06T01:02:00.591Z,10.00
2023-05-06T01:04:03.265Z,10.00
2023-05-06T01:06:10.313Z,10.00
2023-05-06T01:08:15.122Z,10.00
2023-05-06T01:10:19.972Z,10.00
2023-05-06T01:12:26.151Z,10.00
2023-05-06T01:14:31.090Z,10.00
2023-05-06T01:16:35.914Z,10.00
2023-05-06T01:18:38.446Z,9.90
2023-05-06T01:20:42.240Z,9.90
2023-05-06T01:22:44.949Z,9.90
2023-05-06T01:24:47.549Z,9.90
2023-05-06T01:26:50.047Z,9.80
2023-05-06T01:28:52.618Z,9.80
2023-05-06T01:30:57.604Z,9.70
2023-05-06T01:33:02.302Z,9.70
2023-05-06T01:35:08.720Z,9.60
2023-05-06T01:37:14.254Z,9.70
2023-05-06T01:39:18.077Z,9.70
2023-05-06T01:41:21.169Z,9.70
2023-05-06T01:43:25.512Z,9.70
2023-05-06T01:45:28.684Z,9.70
2023-05-06T01:47:31.389Z,9.70
2023-05-06T01:49:34.574Z,9.70
2023-05-06T01:51:37.481Z,9.70
2023-05-06T01:53:40.706Z,9.70
2023-05-06T01:55:43.215Z,9.70
2023-05-06T01:57:45.815Z,9.70
2023-05-06T01:59:48.280Z,9.60
2023-05-06T02:01:50.845Z,9.60
2023-05-06T02:03:53.510Z,9.60
2023-05-06T02:05:56.738Z,9.60
2023-05-06T02:08:00.751Z,9.60
2023-05-06T02:10:03.940Z,9.50
2023-05-06T02:12:07.979Z,9.50
2023-05-06T02:14:11.744Z,9.30
2023-05-06T02:18:30.150Z,9.10
2023-05-06T02:20:32.745Z,9.10
2023-05-06T02:22:35.753Z,9.10
2023-05-06T02:24:38.372Z,9.10
2023-05-06T02:26:40.877Z,9.20
2023-05-06T02:28:43.350Z,9.20
2023-05-06T02:30:47.749Z,9.20
2023-05-06T02:32:50.243Z,9.20
2023-05-06T02:34:53.020Z,9.10
2023-05-06T02:36:56.933Z,9.00
2023-05-06T02:38:59.384Z,9.00
2023-05-06T02:41:02.067Z,9.00
2023-05-06T02:43:04.688Z,9.10
2023-05-06T02:47:23.372Z,9.10
2023-05-06T02:49:25.864Z,9.20
2023-05-06T02:51:28.350Z,9.20
2023-05-06T02:53:30.977Z,9.20
2023-05-06T02:55:33.640Z,9.10
2023-05-06T02:57:36.115Z,9.10
2023-05-06T02:59:38.727Z,9.10
2023-05-06T03:01:41.347Z,9.00
2023-05-06T03:03:44.126Z,9.00
2023-05-06T03:05:46.612Z,9.00
2023-05-06T03:07:49.272Z,9.00
2023-05-06T03:09:51.955Z,9.10
2023-05-06T03:11:54.544Z,9.10
2023-05-06T03:13:57.031Z,9.10
2023-05-06T03:16:00.296Z,9.10
2023-05-06T03:18:03.153Z,9.00
2023-05-06T03:20:08.077Z,8.90
2023-05-06T03:22:11.034Z,8.90
2023-05-06T03:24:15.455Z,8.90
2023-05-06T03:26:18.253Z,9.00
2023-05-06T03:28:21.290Z,9.00
2023-05-06T03:30:24.642Z,8.90
2023-05-06T03:32:29.083Z,8.90
2023-05-06T03:34:31.758Z,8.90
2023-05-06T03:36:34.963Z,8.80
2023-05-06T03:38:37.899Z,8.90
2023-05-06T03:40:42.289Z,8.90
2023-05-06T03:42:45.128Z,8.80
2023-05-06T03:44:48.245Z,8.80
2023-05-06T03:46:51.023Z,8.80
2023-05-06T03:48:54.124Z,8.80
2023-05-06T03:50:56.996Z,8.80
2023-05-06T03:52:59.989Z,8.90
2023-05-06T03:55:03.506Z,8.80
2023-05-06T03:57:06.509Z,8.70
2023-05-06T03:59:09.208Z,8.60
2023-05-06T04:01:11.793Z,8.60
2023-05-06T04:03:14.418Z,8.70
2023-05-06T04:05:19.016Z,8.60
2023-05-06T04:07:21.899Z,8.50
2023-05-06T04:09:24.707Z,8.60
2023-05-06T04:11:29.149Z,8.50
2023-05-06T04:13:32.062Z,8.50
2023-05-06T04:15:37.053Z,8.50
2023-05-06T04:17:41.469Z,8.50
2023-05-06T04:19:44.096Z,8.50
2023-05-06T04:21:46.680Z,8.50
2023-05-06T04:23:49.737Z,8.40
2023-05-06T04:25:54.195Z,8.50
2023-05-06T04:27:57.283Z,8.50
2023-05-06T04:30:00.371Z,8.50
2023-05-06T04:32:04.094Z,8.50
2023-05-06T04:34:07.581Z,8.50
2023-05-06T04:36:12.084Z,8.50
2023-05-06T04:38:16.524Z,8.50
2023-05-06T04:40:19.772Z,8.60
2023-05-06T04:42:23.391Z,8.60
2023-05-06T04:44:28.886Z,8.60
2023-05-06T04:46:31.494Z,8.60
2023-05-06T04:48:34.088Z,8.70
2023-05-06T04:50:37.098Z,8.80
2023-05-06T04:52:39.730Z,8.80
2023-05-06T04:54:44.210Z,8.70
2023-05-06T04:56:47.277Z,8.80
2023-05-06T04:58:50.248Z,8.80
2023-05-06T05:00:53.227Z,8.90
2023-05-06T05:02:56.061Z,9.00
2023-05-06T05:04:59.107Z,9.00
2023-05-06T05:07:01.796Z,9.10
2023-05-06T05:09:06.204Z,9.20
2023-05-06T05:11:09.669Z,9.20
2023-05-06T05:13:12.294Z,9.30
2023-05-06T05:15:15.424Z,9.30
2023-05-06T05:17:18.086Z,9.40
2023-05-06T05:19:21.634Z,9.40
2023-05-06T05:21:24.576Z,9.40
2023-05-06T05:23:27.268Z,9.50
2023-05-06T05:25:29.841Z,9.50
2023-05-06T05:27:32.433Z,9.50
2023-05-06T05:29:35.025Z,9.60
2023-05-06T05:31:38.667Z,9.60
2023-05-06T05:33:41.652Z,9.70
2023-05-06T05:35:46.061Z,9.70
2023-05-06T05:37:49.069Z,9.70
2023-05-06T05:39:51.885Z,9.80
2023-05-06T05:41:54.647Z,9.90
2023-05-06T05:43:57.560Z,9.90
2023-05-06T05:46:01.257Z,10.00
2023-05-06T05:48:05.503Z,10.00
2023-05-06T05:50:09.037Z,10.10
2023-05-06T05:52:12.433Z,10.10
2023-05-06T05:54:15.916Z,10.10
2023-05-06T05:56:18.640Z,10.10
2023-05-06T05:58:21.510Z,10.10
2023-05-06T06:00:24.467Z,10.20
2023-05-06T06:02:29.198Z,10.20
2023-05-06T06:04:32.818Z,10.30
2023-05-06T06:06:35.432Z,10.20
2023-05-06T06:08:38.129Z,10.30
2023-05-06T06:10:41.292Z,10.40
2023-05-06T06:12:45.733Z,10.40
2023-05-06T06:14:50.188Z,10.50
2023-05-06T06:16:54.534Z,10.50
2023-05-06T06:18:58.138Z,10.60
2023-05-06T06:21:00.818Z,10.60
2023-05-06T06:23:03.467Z,10.60
2023-05-06T06:25:07.020Z,10.60
2023-05-06T06:27:09.613Z,10.60
2023-05-06T06:29:12.293Z,10.70
2023-05-06T06:31:14.982Z,10.70
2023-05-06T06:33:17.497Z,10.80
2023-05-06T06:35:20.274Z,10.80
2023-05-06T06:37:22.725Z,10.90
2023-05-06T06:39:25.298Z,10.90
2023-05-06T06:41:27.915Z,11.00
2023-05-06T06:43:30.397Z,11.10
2023-05-06T06:45:34.809Z,11.30
2023-05-06T06:47:37.529Z,11.40
2023-05-06T06:49:40.161Z,11.40
2023-05-06T06:51:42.616Z,11.40
2023-05-06T06:53:46.987Z,11.60
2023-05-06T06:55:49.659Z,11.60
2023-05-06T06:57:52.139Z,11.70
2023-05-06T06:59:55.138Z,11.70
2023-05-06T07:01:57.681Z,11.80
2023-05-06T07:04:00.286Z,11.80
2023-05-06T07:06:02.760Z,11.90
2023-05-06T07:08:05.446Z,12.00
2023-05-06T07:10:08.942Z,12.00
2023-05-06T07:12:11.544Z,12.20
2023-05-06T07:14:13.993Z,12.30
2023-05-06T07:16:16.595Z,12.40
2023-05-06T07:18:19.670Z,12.50
2023-05-06T07:20:22.203Z,12.60
2023-05-06T07:22:24.744Z,12.60
2023-05-06T07:24:27.271Z,12.70
2023-05-06T07:26:30.042Z,12.80
2023-05-06T07:28:32.498Z,12.90
2023-05-06T07:30:36.805Z,12.90
2023-05-06T07:32:40.487Z,13.10
2023-05-06T07:34:43.108Z,13.00
2023-05-06T07:36:45.576Z,13.10
2023-05-06T07:38:48.065Z,13.10
2023-05-06T07:40:50.772Z,13.30
2023-05-06T07:42:53.260Z,13.30
2023-05-06T07:44:55.726Z,13.30
2023-05-06T07:46:58.349Z,13.50
2023-05-06T07:49:01.014Z,13.50
2023-05-06T07:51:03.638Z,13.50
2023-05-06T07:53:06.168Z,13.60
2023-05-06T07:55:09.485Z,13.80
2023-05-06T07:57:12.332Z,13.90
2023-05-06T07:59:14.856Z,14.10
2023-05-06T08:01:17.338Z,14.20
2023-05-06T08:03:19.927Z,14.30
2023-05-06T08:05:22.545Z,14.50
2023-05-06T08:07:25.185Z,14.50
2023-05-06T08:09:27.669Z,14.60
2023-05-06T08:11:30.177Z,14.90
2023-05-06T08:13:32.868Z,15.10
2023-05-06T08:15:35.558Z,15.20
2023-05-06T08:17:38.185Z,15.20
2023-05-06T08:19:40.752Z,15.50
2023-05-06T08:21:43.250Z,15.60
2023-05-06T08:23:45.819Z,15.70
2023-05-06T08:25:48.317Z,15.70
2023-05-06T08:27:50.917Z,16.00
2023-05-06T08:29:53.417Z,16.10
2023-05-06T08:31:56.590Z,16.20
2023-05-06T08:33:59.204Z,16.30
2023-05-06T08:36:01.908Z,16.50
2023-05-06T08:38:04.755Z,16.70
2023-05-06T08:40:10.292Z,16.90
2023-05-06T08:42:12.769Z,17.00
2023-05-06T08:44:17.382Z,17.20
2023-05-06T08:46:19.915Z,17.30
2023-05-06T08:48:22.554Z,17.40
2023-05-06T08:50:25.575Z,17.70
2023-05-06T08:52:28.561Z,17.80
2023-05-06T08:54:32.157Z,17.80
2023-05-06T08:56:35.267Z,17.90
2023-05-06T08:58:38.860Z,18.00
2023-05-06T09:00:42.348Z,18.20
2023-05-06T09:02:44.919Z,18.20
2023-05-06T09:04:48.076Z,18.40
2023-05-06T09:06:50.696Z,18.60
2023-05-06T09:08:53.178Z,18.40
2023-05-06T09:10:55.683Z,18.80
2023-05-06T09:12:58.234Z,18.90
2023-05-06T09:15:00.792Z,18.80
2023-05-06T09:17:03.535Z,18.60
2023-05-06T09:19:06.221Z,18.80
2023-05-06T09:21:08.777Z,19.00
2023-05-06T09:23:11.788Z,19.10
2023-05-06T09:25:14.608Z,19.20
2023-05-06T09:27:17.412Z,19.40
2023-05-06T09:29:20.075Z,19.50
2023-05-06T09:31:22.606Z,19.60
2023-05-06T09:33:27.052Z,19.50
2023-05-06T09:35:31.415Z,19.60
2023-05-06T09:37:33.904Z,19.50
2023-05-06T09:39:36.402Z,19.80
2023-05-06T09:41:38.937Z,19.80
2023-05-06T09:43:44.303Z,19.90
2023-05-06T09:45:46.815Z,19.80
2023-05-06T09:47:49.382Z,20.10
2023-05-06T09:49:53.713Z,20.10
2023-05-06T09:51:57.072Z,19.70
2023-05-06T09:54:00.633Z,20.00
2023-05-06T09:56:03.833Z,20.00
2023-05-06T09:58:06.955Z,19.90
2023-05-06T10:00:12.314Z,19.50
2023-05-06T10:02:15.227Z,19.20
2023-05-06T10:04:18.235Z,19.40
2023-05-06T10:06:22.691Z,19.50
2023-05-06T10:08:25.321Z,19.50
2023-05-06T10:10:28.285Z,19.50
2023-05-06T10:12:31.005Z,19.80
2023-05-06T10:14:33.444Z,20.20
2023-05-06T10:16:36.398Z,20.40
2023-05-06T10:18:39.724Z,20.60
2023-05-06T10:20:42.776Z,20.20
2023-05-06T10:22:49.105Z,19.90
2023-05-06T10:24:53.410Z,19.70
2023-05-06T10:26:56.434Z,19.80
2023-05-06T10:29:00.005Z,19.80
2023-05-06T10:31:04.252Z,19.90
2023-05-06T10:33:07.541Z,19.80
2023-05-06T10:35:12.438Z,20.00
2023-05-06T10:37:15.412Z,20.10
2023-05-06T10:39:18.105Z,19.90
2023-05-06T10:41:21.666Z,20.10
2023-05-06T10:43:25.417Z,20.30
2023-05-06T10:45:28.130Z,20.40
2023-05-06T10:47:42.566Z,20.50
2023-05-06T10:49:47.053Z,20.50
2023-05-06T10:51:51.291Z,20.10
2023-05-06T10:53:55.692Z,19.90
2023-05-06T10:56:08.490Z,19.80
2023-05-06T10:58:13.608Z,19.50
2023-05-06T11:00:16.921Z,19.20
2023-05-06T11:02:19.902Z,19.00
2023-05-06T11:04:22.834Z,19.00
2023-05-06T11:06:35.323Z,19.10
2023-05-06T11:08:38.417Z,19.00
2023-05-06T11:10:41.089Z,19.00
2023-05-06T11:12:48.209Z,19.00
2023-05-06T11:14:50.866Z,19.00
2023-05-06T11:16:53.739Z,19.00
2023-05-06T11:18:56.292Z,19.00
2023-05-06T11:21:17.941Z,18.80
2023-05-06T11:23:20.501Z,18.80
2023-05-06T11:25:50.967Z,18.70
2023-05-06T11:27:55.208Z,18.60
2023-05-06T11:29:57.769Z,18.60
2023-05-06T11:32:00.487Z,18.50
2023-05-06T11:34:04.732Z,18.50
2023-05-06T11:36:09.681Z,18.50
2023-05-06T11:38:12.802Z,18.50
2023-05-06T11:40:15.654Z,18.60
2023-05-06T11:42:21.437Z,18.50
2023-05-06T11:44:24.734Z,18.50
2023-05-06T11:46:29.248Z,18.50
2023-05-06T11:48:31.718Z,18.50
2023-05-06T11:50:34.245Z,18.50
2023-05-06T11:52:36.732Z,18.50
2023-05-06T11:54:40.382Z,18.50
2023-05-06T11:56:46.819Z,18.50
2023-05-06T11:58:49.291Z,18.60
2023-05-06T12:00:53.545Z,18.60
2023-05-06T12:02:56.426Z,18.70
2023-05-06T12:05:00.837Z,18.70
2023-05-06T12:07:04.947Z,19.00
2023-05-06T12:09:09.592Z,19.50
2023-05-06T12:11:12.107Z,19.80
2023-05-06T12:13:15.540Z,19.90
2023-05-06T12:15:18.102Z,19.90
2023-05-06T12:17:20.914Z,19.70
2023-05-06T12:19:23.499Z,19.80
2023-05-06T12:21:26.419Z,19.80
2023-05-06T12:23:28.911Z,19.80
2023-05-06T12:25:31.898Z,20.00
2023-05-06T12:27:35.102Z,20.20
2023-05-06T12:32:07.385Z,20.60
2023-05-06T12:34:10.138Z,20.90
2023-05-06T12:36:12.720Z,21.00
2023-05-06T12:38:15.947Z,20.70
2023-05-06T12:40:18.456Z,20.60
2023-05-06T12:42:21.157Z,20.70
2023-05-06T12:44:31.128Z,20.50
2023-05-06T12:46:33.764Z,20.50
2023-05-06T12:48:36.235Z,20.60
2023-05-06T12:50:39.717Z,20.70
2023-05-06T12:52:44.101Z,20.90
2023-05-06T12:54:46.770Z,20.90
2023-05-06T12:56:49.264Z,20.60
2023-05-06T12:59:01.167Z,20.50
2023-05-06T13:01:03.780Z,20.70
2023-05-06T13:03:06.421Z,20.80
2023-05-06T13:05:09.479Z,20.90
2023-05-06T13:07:11.982Z,20.90
2023-05-06T13:09:15.370Z,20.90
2023-05-06T13:11:18.220Z,21.00
2023-05-06T13:13:20.827Z,21.20
2023-05-06T13:15:23.603Z,20.90
2023-05-06T13:17:26.478Z,20.70
2023-05-06T13:19:33.000Z,20.70
2023-05-06T13:21:33.868Z,20.60
2023-05-06T13:23:37.587Z,20.60
2023-05-06T13:25:51.987Z,20.80
2023-05-06T13:27:44.473Z,21.00
2023-05-06T13:29:46.987Z,21.00
2023-05-06T13:31:49.464Z,21.00
2023-05-06T13:33:52.313Z,21.10
2023-05-06T13:35:56.356Z,21.20
2023-05-06T13:37:58.834Z,21.10
2023-05-06T13:40:01.364Z,21.10
2023-05-06T13:42:05.385Z,21.10
2023-05-06T13:44:08.349Z,21.00
2023-05-06T13:46:10.864Z,21.00
2023-05-06T13:48:13.955Z,20.80
2023-05-06T13:50:16.559Z,21.00
2023-05-06T13:52:19.122Z,21.30
2023-05-06T13:54:21.627Z,21.40
2023-05-06T13:56:24.108Z,21.40
2023-05-06T13:58:26.629Z,21.40
2023-05-06T14:00:29.233Z,21.30
2023-05-06T14:02:31.763Z,21.20
2023-05-06T14:04:34.352Z,21.20
2023-05-06T14:06:37.615Z,21.20
2023-05-06T14:08:40.421Z,21.00
2023-05-06T14:10:43.038Z,21.10
2023-05-06T14:12:45.668Z,21.20
2023-05-06T14:14:48.246Z,21.00
2023-05-06T14:16:53.122Z,20.70
2023-05-06T14:18:55.663Z,20.60
2023-05-06T14:20:58.334Z,20.50
2023-05-06T14:23:00.822Z,20.50
2023-05-06T14:25:03.475Z,20.40
2023-05-06T14:27:06.083Z,20.60
2023-05-06T14:29:08.569Z,20.70
2023-05-06T14:31:11.063Z,20.60
2023-05-06T14:33:13.619Z,20.50
2023-05-06T14:35:16.128Z,20.60
2023-05-06T14:37:18.807Z,20.70
2023-05-06T14:39:21.814Z,20.60
2023-05-06T14:41:24.365Z,20.50
2023-05-06T14:43:26.865Z,20.50
2023-05-06T14:45:29.373Z,20.40
2023-05-06T14:47:31.865Z,20.40
2023-05-06T14:49:34.570Z,20.40
2023-05-06T14:51:37.038Z,20.40
2023-05-06T14:53:39.535Z,20.30
2023-05-06T14:55:42.024Z,20.20
2023-05-06T14:57:44.652Z,20.40
2023-05-06T14:59:52.106Z,20.50
2023-05-06T15:01:56.215Z,20.70
2023-05-06T15:04:01.827Z,20.60
2023-05-06T15:06:06.277Z,20.50
2023-05-06T15:08:09.767Z,20.40
2023-05-06T15:10:12.233Z,20.40
2023-05-06T15:12:15.086Z,20.30
2023-05-06T15:14:17.611Z,20.20
2023-05-06T15:16:20.284Z,20.20
2023-05-06T15:18:22.724Z,20.20
2023-05-06T15:20:25.480Z,20.20
2023-05-06T15:22:27.923Z,20.20
2023-05-06T15:24:30.399Z,20.30
2023-05-06T15:26:32.895Z,20.40
2023-05-06T15:28:35.531Z,20.30
2023-05-06T15:30:38.035Z,20.20
2023-05-06T15:32:40.800Z,20.20
2023-05-06T15:34:43.337Z,20.20
2023-05-06T15:36:47.597Z,20.20
2023-05-06T15:39:00.483Z,20.20
2023-05-06T15:41:03.456Z,20.10
2023-05-06T15:43:06.103Z,20.10
2023-05-06T15:45:10.609Z,20.00
2023-05-06T15:47:13.108Z,20.10
2023-05-06T15:51:20.305Z,20.10
2023-05-06T15:53:22.810Z,19.90
2023-05-06T15:55:26.370Z,20.00
2023-05-06T15:57:30.296Z,19.90
2023-05-06T15:59:32.812Z,19.90
2023-05-06T16:01:57.428Z,19.90
2023-05-06T16:03:40.993Z,19.90
2023-05-06T16:05:43.701Z,19.80
2023-05-06T16:07:46.356Z,19.80
2023-05-06T16:09:49.091Z,19.70
2023-05-06T16:11:51.559Z,19.70
2023-05-06T16:13:54.076Z,19.60
2023-05-06T16:15:56.580Z,19.60
2023-05-06T16:17:59.184Z,19.60
2023-05-06T16:20:01.707Z,19.60
2023-05-06T16:22:04.428Z,19.50
2023-05-06T16:24:07.202Z,19.60
2023-05-06T16:26:09.710Z,19.50
2023-05-06T16:28:12.202Z,19.50
2023-05-06T16:30:15.012Z,19.50
2023-05-06T16:32:17.498Z,19.40
2023-05-06T16:34:19.999Z,19.40
2023-05-06T16:36:22.472Z,19.40
2023-05-06T16:38:25.657Z,19.30
2023-05-06T16:40:29.379Z,19.20
2023-05-06T16:42:31.887Z,19.20
2023-05-06T16:44:34.523Z,19.20
2023-05-06T16:46:37.097Z,19.10
2023-05-06T16:48:39.837Z,19.10
2023-05-06T16:50:42.414Z,19.10
2023-05-06T16:52:44.891Z,19.10
2023-05-06T16:54:47.400Z,19.00
2023-05-06T16:56:52.497Z,19.00
2023-05-06T16:58:54.273Z,19.00
2023-05-06T17:00:57.494Z,19.00
2023-05-06T17:03:00.438Z,18.70
2023-05-06T17:05:03.180Z,18.10
2023-05-06T17:07:05.674Z,17.30
2023-05-06T17:09:27.547Z,16.70
2023-05-06T17:11:30.070Z,16.10
2023-05-06T17:13:32.568Z,15.60
2023-05-06T17:15:35.138Z,15.30
2023-05-06T17:17:37.686Z,15.30
2023-05-06T17:19:40.214Z,15.20
2023-05-06T17:21:42.864Z,15.10
2023-05-06T17:23:45.415Z,14.80
2023-05-06T17:25:47.926Z,14.90
2023-05-06T17:27:50.436Z,14.70
2023-05-06T17:29:53.195Z,14.60
2023-05-06T17:31:55.748Z,14.70
2023-05-06T17:33:58.213Z,14.50
2023-05-06T17:36:00.707Z,14.60
2023-05-06T17:38:03.329Z,14.50
2023-05-06T17:40:07.804Z,14.40
2023-05-06T17:42:32.996Z,14.30
2023-05-06T17:44:46.342Z,14.20
2023-05-06T17:46:50.334Z,14.20
2023-05-06T17:48:53.214Z,14.10
2023-05-06T17:51:03.854Z,14.10
2023-05-06T17:53:06.337Z,14.20
2023-05-06T17:55:16.274Z,14.10
2023-05-06T17:57:14.101Z,14.10
2023-05-06T17:59:33.586Z,14.10
2023-05-06T18:01:38.081Z,14.00
2023-05-06T18:03:40.714Z,14.00
2023-05-06T18:05:43.310Z,14.10
2023-05-06T18:07:46.402Z,14.20
2023-05-06T18:09:50.820Z,14.00
2023-05-06T18:11:53.433Z,14.00
2023-05-06T18:13:55.888Z,14.20
2023-05-06T18:15:58.486Z,14.20
2023-05-06T18:18:01.025Z,14.20
2023-05-06T18:20:03.735Z,14.20
2023-05-06T18:22:06.219Z,14.20
2023-05-06T18:24:16.076Z,14.20
2023-05-06T18:26:15.448Z,14.10
2023-05-06T18:28:17.824Z,14.20
2023-05-06T18:30:20.287Z,14.20
2023-05-06T18:32:22.883Z,14.10
2023-05-06T18:34:25.476Z,14.20
2023-05-06T18:36:28.902Z,14.20
2023-05-06T18:38:32.341Z,14.20
2023-05-06T18:40:36.716Z,14.10
2023-05-06T18:42:40.641Z,14.10
2023-05-06T18:44:44.508Z,14.10
2023-05-06T18:46:48.236Z,14.20
2023-05-06T18:51:11.608Z,14.20
2023-05-06T18:53:15.795Z,14.20
2023-05-06T18:55:19.889Z,14.40
2023-05-06T18:57:24.235Z,14.10
2023-05-06T18:59:28.159Z,14.10
2023-05-06T19:01:31.929Z,14.10
2023-05-06T19:03:36.215Z,14.10
2023-05-06T19:05:40.156Z,14.10
2023-05-06T19:07:43.985Z,14.10
2023-05-06T19:09:46.718Z,14.10
2023-05-06T19:11:49.244Z,14.10
2023-05-06T19:13:52.423Z,14.10
2023-05-06T19:15:56.576Z,14.10
2023-05-06T19:17:59.336Z,14.10
2023-05-06T19:20:01.901Z,14.10
2023-05-06T19:22:04.483Z,14.10
2023-05-06T19:24:07.176Z,14.10
2023-05-06T19:26:10.361Z,14.10
2023-05-06T19:28:12.898Z,14.00
2023-05-06T19:30:15.593Z,14.00
2023-05-06T19:32:18.049Z,14.00
2023-05-06T19:34:20.669Z,14.00
2023-05-06T19:36:23.158Z,14.00
2023-05-06T19:38:25.712Z,14.00
2023-05-06T19:40:28.410Z,14.00
2023-05-06T19:42:30.933Z,13.90
2023-05-06T19:44:33.393Z,13.90
2023-05-06T19:46:36.077Z,13.90
2023-05-06T19:48:38.759Z,13.90
2023-05-06T19:50:41.353Z,13.90
2023-05-06T19:52:43.941Z,13.80
2023-05-06T19:54:46.555Z,13.90
2023-05-06T19:56:49.019Z,13.80
2023-05-06T19:58:51.546Z,13.80
2023-05-06T20:00:54.020Z,13.80
2023-05-06T20:02:57.600Z,13.80
2023-05-06T20:05:00.538Z,13.80
2023-05-06T20:07:03.188Z,13.70
2023-05-06T20:09:05.736Z,13.80
2023-05-06T20:11:08.240Z,13.80
2023-05-06T20:13:11.315Z,13.80
2023-05-06T20:15:15.532Z,13.80
2023-05-06T20:17:18.151Z,13.90
2023-05-06T20:19:21.221Z,13.80
2023-05-06T20:21:23.826Z,13.80
2023-05-06T20:23:26.332Z,13.90
2023-05-06T20:25:29.562Z,13.80
2023-05-06T20:27:32.069Z,13.80
2023-05-06T20:29:34.697Z,13.90
2023-05-06T20:31:37.223Z,13.80
2023-05-06T20:33:39.762Z,13.80
2023-05-06T20:35:42.465Z,13.80
2023-05-06T20:37:44.972Z,13.70
2023-05-06T20:39:47.465Z,13.70
2023-05-06T20:41:49.977Z,13.70
2023-05-06T20:43:52.745Z,13.70
2023-05-06T20:45:55.283Z,13.70
2023-05-06T20:47:57.889Z,13.70
2023-05-06T20:50:00.964Z,13.60
2023-05-06T20:52:05.514Z,13.70
2023-05-06T20:54:08.013Z,13.60
2023-05-06T20:56:17.491Z,13.60
2023-05-06T20:58:20.015Z,13.60
2023-05-06T21:00:22.706Z,13.70
2023-05-06T21:02:27.069Z,13.70
2023-05-06T21:04:29.743Z,13.70
2023-05-06T21:06:32.261Z,13.70
2023-05-06T21:08:34.724Z,13.70
2023-05-06T21:10:37.258Z,13.70
2023-05-06T21:12:39.866Z,13.60
2023-05-06T21:14:42.440Z,13.60
2023-05-06T21:16:44.909Z,13.60
2023-05-06T21:18:47.385Z,13.60
2023-05-06T21:20:50.088Z,13.60
2023-05-06T21:22:52.843Z,13.50
2023-05-06T21:24:55.339Z,13.50
2023-05-06T21:26:57.844Z,13.50
2023-05-06T21:29:00.306Z,13.50
2023-05-06T21:31:03.271Z,13.50
2023-05-06T21:33:07.616Z,13.50
2023-05-06T21:35:10.551Z,13.50
2023-05-06T21:37:13.095Z,13.50
2023-05-06T21:39:15.667Z,13.50
2023-05-06T21:41:18.178Z,13.50
2023-05-06T21:43:20.661Z,13.50
2023-05-06T21:47:38.605Z,13.50
2023-05-06T21:49:41.142Z,13.50
2023-05-06T21:51:43.621Z,13.50
2023-05-06T21:53:49.477Z,13.50
2023-05-06T21:55:51.967Z,13.50
2023-05-06T21:57:54.583Z,13.50
2023-05-06T21:59:57.080Z,13.50
2023-05-06T22:01:59.645Z,13.40
2023-05-06T22:04:03.446Z,13.40
2023-05-06T22:06:06.493Z,13.40
2023-05-06T22:08:09.036Z,13.40
2023-05-06T22:10:11.642Z,13.40
2023-05-06T22:12:14.815Z,13.40
2023-05-06T22:14:19.828Z,13.40
2023-05-06T22:16:21.949Z,13.30
2023-05-06T22:18:25.144Z,13.30
2023-05-06T22:20:28.539Z,13.40
2023-05-06T22:22:31.029Z,13.40
2023-05-06T22:24:33.565Z,13.40
2023-05-06T22:26:36.039Z,13.40
2023-05-06T22:28:38.575Z,13.40
2023-05-06T22:30:41.048Z,13.40
2023-05-06T22:32:44.215Z,13.50
2023-05-06T22:34:46.720Z,13.50
2023-05-06T22:36:49.240Z,13.50
2023-05-06T22:38:51.892Z,13.50
2023-05-06T22:40:54.509Z,13.50
2023-05-06T22:42:57.024Z,13.50
2023-05-06T22:44:59.544Z,13.50
2023-05-06T22:47:02.030Z,13.50
2023-05-06T22:49:04.628Z,13.60
2023-05-06T22:51:07.273Z,13.50
2023-05-06T22:53:15.145Z,13.50
2023-05-06T22:55:21.033Z,13.50
2023-05-06T22:57:27.407Z,13.50
2023-05-06T22:59:30.911Z,13.50
2023-05-06T23:01:34.173Z,13.50
2023-05-06T23:03:37.786Z,13.50
2023-05-06T23:05:41.379Z,13.50
2023-05-06T23:07:45.028Z,13.50
2023-05-06T23:09:48.294Z,13.50
2023-05-06T23:11:51.506Z,13.50
2023-05-06T23:13:54.643Z,13.40
2023-05-06T23:15:57.970Z,13.40
2023-05-06T23:18:01.353Z,13.40
2023-05-06T23:20:05.832Z,13.40
2023-05-06T23:22:09.318Z,13.30
2023-05-06T23:24:13.062Z,13.30
2023-05-06T23:26:16.433Z,13.40
2023-05-06T23:28:19.192Z,13.40
2023-05-06T23:30:21.950Z,13.40
2023-05-06T23:32:24.564Z,13.40
2023-05-06T23:34:27.317Z,13.40
2023-05-06T23:36:30.287Z,13.30
2023-05-06T23:38:32.878Z,13.40
2023-05-06T23:40:35.618Z,13.40
2023-05-06T23:42:38.279Z,13.30
2023-05-06T23:44:40.939Z,13.30
2023-05-06T23:46:43.731Z,13.40
2023-05-06T23:48:46.468Z,13.40
2023-05-06T23:50:48.957Z,13.40
2023-05-06T23:52:51.465Z,13.40
2023-05-06T23:54:53.945Z,13.40
2023-05-06T23:56:56.467Z,13.30
2023-05-06T23:58:58.932Z,13.40
